sensor_id;sensor_type;location;lat;lon;timestamp;P1;durP1;ratioP1;P2;durP2;ratioP2
15748;SDS011;7976;52.526;13.326;2023-04-23T00:02:19;16.95;;;7.07;;
15748;SDS011;7976;52.526;13.326;2023-04-23T00:04:48;14.60;;;6.35;;
15748;SDS011;7976;52.526;13.326;2023-04-23T00:07:19;16.88;;;6.80;;
15748;SDS011;7976;52.526;13.326;2023-04-23T00:09:46;13.65;;;6.90;;
15748;SDS011;7976;52.526;13.326;2023-04-23T00:12:17;15.00;;;6.32;;
15748;SDS011;7976;52.526;13.326;2023-04-23T00:14:45;13.65;;;6.72;;
15748;SDS011;7976;52.526;13.326;2023-04-23T00:17:12;13.30;;;6.32;;
15748;SDS011;7976;52.526;13.326;2023-04-23T00:19:39;13.38;;;7.00;;
15748;SDS011;7976;52.526;13.326;2023-04-23T00:22:06;13.95;;;6.82;;
15748;SDS011;7976;52.526;13.326;2023-04-23T00:24:34;14.00;;;7.13;;
15748;SDS011;7976;52.526;13.326;2023-04-23T00:27:03;13.63;;;6.50;;
15748;SDS011;7976;52.526;13.326;2023-04-23T00:29:30;15.63;;;7.00;;
15748;SDS011;7976;52.526;13.326;2023-04-23T00:31:57;12.73;;;6.43;;
15748;SDS011;7976;52.526;13.326;2023-04-23T00:34:24;12.60;;;6.63;;
15748;SDS011;7976;52.526;13.326;2023-04-23T00:36:51;13.40;;;7.05;;
15748;SDS011;7976;52.526;13.326;2023-04-23T00:39:18;13.65;;;6.57;;
15748;SDS011;7976;52.526;13.326;2023-04-23T00:41:46;15.63;;;6.75;;
15748;SDS011;7976;52.526;13.326;2023-04-23T00:44:13;14.68;;;6.80;;
15748;SDS011;7976;52.526;13.326;2023-04-23T00:46:40;14.50;;;6.60;;
15748;SDS011;7976;52.526;13.326;2023-04-23T00:49:07;13.65;;;6.75;;
15748;SDS011;7976;52.526;13.326;2023-04-23T00:51:35;13.35;;;6.82;;
15748;SDS011;7976;52.526;13.326;2023-04-23T00:54:01;15.07;;;6.38;;
15748;SDS011;7976;52.526;13.326;2023-04-23T00:56:28;15.25;;;6.78;;
15748;SDS011;7976;52.526;13.326;2023-04-23T00:58:57;14.30;;;6.38;;
15748;SDS011;7976;52.526;13.326;2023-04-23T01:01:24;13.93;;;6.68;;
15748;SDS011;7976;52.526;13.326;2023-04-23T01:03:52;16.20;;;6.57;;
15748;SDS011;7976;52.526;13.326;2023-04-23T01:06:20;11.93;;;6.35;;
15748;SDS011;7976;52.526;13.326;2023-04-23T01:08:49;16.30;;;6.82;;
15748;SDS011;7976;52.526;13.326;2023-04-23T01:11:16;14.93;;;6.85;;
15748;SDS011;7976;52.526;13.326;2023-04-23T01:13:43;12.48;;;6.40;;
15748;SDS011;7976;52.526;13.326;2023-04-23T01:16:11;13.13;;;6.47;;
15748;SDS011;7976;52.526;13.326;2023-04-23T01:18:38;13.32;;;6.35;;
15748;SDS011;7976;52.526;13.326;2023-04-23T01:21:06;17.60;;;7.05;;
15748;SDS011;7976;52.526;13.326;2023-04-23T01:23:37;13.63;;;6.72;;
15748;SDS011;7976;52.526;13.326;2023-04-23T01:26:04;13.55;;;6.65;;
15748;SDS011;7976;52.526;13.326;2023-04-23T01:28:32;13.60;;;7.00;;
15748;SDS011;7976;52.526;13.326;2023-04-23T01:31:00;15.25;;;6.85;;
15748;SDS011;7976;52.526;13.326;2023-04-23T01:33:28;13.27;;;6.57;;
15748;SDS011;7976;52.526;13.326;2023-04-23T01:35:56;14.48;;;7.05;;
15748;SDS011;7976;52.526;13.326;2023-04-23T01:38:25;13.45;;;6.72;;
15748;SDS011;7976;52.526;13.326;2023-04-23T01:40:58;12.32;;;7.00;;
15748;SDS011;7976;52.526;13.326;2023-04-23T01:43:24;12.90;;;6.75;;
15748;SDS011;7976;52.526;13.326;2023-04-23T01:45:51;12.32;;;6.93;;
15748;SDS011;7976;52.526;13.326;2023-04-23T01:48:18;13.68;;;6.85;;
15748;SDS011;7976;52.526;13.326;2023-04-23T01:50:46;14.13;;;6.88;;
15748;SDS011;7976;52.526;13.326;2023-04-23T01:53:13;17.17;;;7.88;;
15748;SDS011;7976;52.526;13.326;2023-04-23T01:55:40;17.08;;;7.60;;
15748;SDS011;7976;52.526;13.326;2023-04-23T01:58:13;15.75;;;7.47;;
15748;SDS011;7976;52.526;13.326;2023-04-23T02:00:40;13.70;;;7.20;;
15748;SDS011;7976;52.526;13.326;2023-04-23T02:03:07;13.80;;;7.20;;
15748;SDS011;7976;52.526;13.326;2023-04-23T02:05:35;16.90;;;7.72;;
15748;SDS011;7976;52.526;13.326;2023-04-23T02:08:05;14.88;;;8.20;;
15748;SDS011;7976;52.526;13.326;2023-04-23T02:10:33;16.27;;;7.57;;
15748;SDS011;7976;52.526;13.326;2023-04-23T02:13:00;18.70;;;8.57;;
15748;SDS011;7976;52.526;13.326;2023-04-23T02:15:30;17.27;;;8.23;;
15748;SDS011;7976;52.526;13.326;2023-04-23T02:17:58;16.38;;;8.60;;
15748;SDS011;7976;52.526;13.326;2023-04-23T02:20:25;16.38;;;8.43;;
15748;SDS011;7976;52.526;13.326;2023-04-23T02:22:51;16.75;;;8.48;;
15748;SDS011;7976;52.526;13.326;2023-04-23T02:25:18;16.38;;;8.80;;
15748;SDS011;7976;52.526;13.326;2023-04-23T02:27:46;17.23;;;8.48;;
15748;SDS011;7976;52.526;13.326;2023-04-23T02:30:13;18.55;;;8.70;;
15748;SDS011;7976;52.526;13.326;2023-04-23T02:32:41;18.05;;;8.95;;
15748;SDS011;7976;52.526;13.326;2023-04-23T02:35:08;16.52;;;8.27;;
15748;SDS011;7976;52.526;13.326;2023-04-23T02:37:36;16.10;;;8.63;;
15748;SDS011;7976;52.526;13.326;2023-04-23T02:40:04;14.82;;;8.65;;
15748;SDS011;7976;52.526;13.326;2023-04-23T02:42:32;16.73;;;8.85;;
15748;SDS011;7976;52.526;13.326;2023-04-23T02:44:59;16.80;;;8.95;;
15748;SDS011;7976;52.526;13.326;2023-04-23T02:47:26;16.30;;;9.02;;
15748;SDS011;7976;52.526;13.326;2023-04-23T02:49:55;15.50;;;8.13;;
15748;SDS011;7976;52.526;13.326;2023-04-23T02:52:23;15.63;;;8.32;;
15748;SDS011;7976;52.526;13.326;2023-04-23T02:54:50;16.17;;;8.13;;
15748;SDS011;7976;52.526;13.326;2023-04-23T02:57:17;17.02;;;8.20;;
15748;SDS011;7976;52.526;13.326;2023-04-23T02:59:43;14.57;;;7.57;;
15748;SDS011;7976;52.526;13.326;2023-04-23T03:02:10;15.70;;;8.25;;
15748;SDS011;7976;52.526;13.326;2023-04-23T03:04:37;13.43;;;7.32;;
15748;SDS011;7976;52.526;13.326;2023-04-23T03:07:06;15.82;;;7.88;;
15748;SDS011;7976;52.526;13.326;2023-04-23T03:09:34;14.40;;;7.43;;
15748;SDS011;7976;52.526;13.326;2023-04-23T03:12:01;14.77;;;7.40;;
15748;SDS011;7976;52.526;13.326;2023-04-23T03:14:28;15.05;;;6.95;;
15748;SDS011;7976;52.526;13.326;2023-04-23T03:16:55;14.65;;;7.28;;
15748;SDS011;7976;52.526;13.326;2023-04-23T03:19:22;13.27;;;6.55;;
15748;SDS011;7976;52.526;13.326;2023-04-23T03:21:48;16.42;;;7.57;;
15748;SDS011;7976;52.526;13.326;2023-04-23T03:24:17;12.90;;;6.07;;
15748;SDS011;7976;52.526;13.326;2023-04-23T03:26:44;17.58;;;7.40;;
15748;SDS011;7976;52.526;13.326;2023-04-23T03:29:10;13.73;;;7.43;;
15748;SDS011;7976;52.526;13.326;2023-04-23T03:31:37;13.35;;;6.57;;
15748;SDS011;7976;52.526;13.326;2023-04-23T03:34:07;13.80;;;7.15;;
15748;SDS011;7976;52.526;13.326;2023-04-23T03:36:35;12.82;;;6.68;;
15748;SDS011;7976;52.526;13.326;2023-04-23T03:39:02;12.25;;;6.55;;
15748;SDS011;7976;52.526;13.326;2023-04-23T03:41:42;13.02;;;6.95;;
15748;SDS011;7976;52.526;13.326;2023-04-23T03:44:11;14.90;;;6.95;;
15748;SDS011;7976;52.526;13.326;2023-04-23T03:46:41;16.45;;;7.68;;
15748;SDS011;7976;52.526;13.326;2023-04-23T03:49:08;13.18;;;6.45;;
15748;SDS011;7976;52.526;13.326;2023-04-23T03:51:39;14.30;;;6.85;;
15748;SDS011;7976;52.526;13.326;2023-04-23T03:54:07;13.80;;;6.97;;
15748;SDS011;7976;52.526;13.326;2023-04-23T03:56:38;13.00;;;7.55;;
15748;SDS011;7976;52.526;13.326;2023-04-23T03:59:19;13.02;;;6.50;;
15748;SDS011;7976;52.526;13.326;2023-04-23T04:01:48;14.90;;;6.90;;
15748;SDS011;7976;52.526;13.326;2023-04-23T04:04:16;13.93;;;6.75;;
15748;SDS011;7976;52.526;13.326;2023-04-23T04:06:43;12.55;;;6.55;;
15748;SDS011;7976;52.526;13.326;2023-04-23T04:09:10;13.40;;;6.38;;
15748;SDS011;7976;52.526;13.326;2023-04-23T04:11:37;13.02;;;6.65;;
15748;SDS011;7976;52.526;13.326;2023-04-23T04:14:05;14.35;;;6.82;;
15748;SDS011;7976;52.526;13.326;2023-04-23T04:16:33;13.00;;;5.93;;
15748;SDS011;7976;52.526;13.326;2023-04-23T04:19:00;15.63;;;6.45;;
15748;SDS011;7976;52.526;13.326;2023-04-23T04:21:26;15.10;;;6.53;;
15748;SDS011;7976;52.526;13.326;2023-04-23T04:23:54;17.27;;;7.05;;
15748;SDS011;7976;52.526;13.326;2023-04-23T04:26:21;13.20;;;6.03;;
15748;SDS011;7976;52.526;13.326;2023-04-23T04:28:48;11.20;;;5.90;;
15748;SDS011;7976;52.526;13.326;2023-04-23T04:31:15;12.98;;;6.45;;
15748;SDS011;7976;52.526;13.326;2023-04-23T04:33:45;12.48;;;5.95;;
15748;SDS011;7976;52.526;13.326;2023-04-23T04:36:12;12.88;;;5.93;;
15748;SDS011;7976;52.526;13.326;2023-04-23T04:38:39;13.05;;;5.78;;
15748;SDS011;7976;52.526;13.326;2023-04-23T04:41:07;13.18;;;6.22;;
15748;SDS011;7976;52.526;13.326;2023-04-23T04:43:35;12.40;;;6.32;;
15748;SDS011;7976;52.526;13.326;2023-04-23T04:46:02;13.05;;;5.97;;
15748;SDS011;7976;52.526;13.326;2023-04-23T04:48:29;12.35;;;6.22;;
15748;SDS011;7976;52.526;13.326;2023-04-23T04:50:57;12.77;;;6.07;;
15748;SDS011;7976;52.526;13.326;2023-04-23T04:53:24;13.45;;;6.07;;
15748;SDS011;7976;52.526;13.326;2023-04-23T04:55:51;13.32;;;5.90;;
15748;SDS011;7976;52.526;13.326;2023-04-23T04:58:18;13.80;;;6.20;;
15748;SDS011;7976;52.526;13.326;2023-04-23T05:00:44;12.10;;;6.18;;
15748;SDS011;7976;52.526;13.326;2023-04-23T05:03:13;12.02;;;5.68;;
15748;SDS011;7976;52.526;13.326;2023-04-23T05:05:40;10.98;;;5.68;;
15748;SDS011;7976;52.526;13.326;2023-04-23T05:08:08;12.93;;;6.07;;
15748;SDS011;7976;52.526;13.326;2023-04-23T05:10:35;12.55;;;5.70;;
15748;SDS011;7976;52.526;13.326;2023-04-23T05:13:02;13.02;;;5.90;;
15748;SDS011;7976;52.526;13.326;2023-04-23T05:15:29;15.05;;;6.03;;
15748;SDS011;7976;52.526;13.326;2023-04-23T05:17:56;14.18;;;5.95;;
15748;SDS011;7976;52.526;13.326;2023-04-23T05:20:23;15.98;;;5.72;;
15748;SDS011;7976;52.526;13.326;2023-04-23T05:22:50;12.50;;;5.25;;
15748;SDS011;7976;52.526;13.326;2023-04-23T05:25:18;13.68;;;5.60;;
15748;SDS011;7976;52.526;13.326;2023-04-23T05:27:45;12.60;;;5.65;;
15748;SDS011;7976;52.526;13.326;2023-04-23T05:30:12;12.55;;;5.45;;
15748;SDS011;7976;52.526;13.326;2023-04-23T05:32:39;11.50;;;5.07;;
15748;SDS011;7976;52.526;13.326;2023-04-23T05:35:06;11.02;;;5.00;;
15748;SDS011;7976;52.526;13.326;2023-04-23T05:37:34;13.23;;;5.38;;
15748;SDS011;7976;52.526;13.326;2023-04-23T05:40:01;13.90;;;5.65;;
15748;SDS011;7976;52.526;13.326;2023-04-23T05:42:31;11.73;;;5.18;;
15748;SDS011;7976;52.526;13.326;2023-04-23T05:44:59;12.27;;;5.22;;
15748;SDS011;7976;52.526;13.326;2023-04-23T05:47:27;11.40;;;5.18;;
15748;SDS011;7976;52.526;13.326;2023-04-23T05:49:54;13.40;;;5.13;;
15748;SDS011;7976;52.526;13.326;2023-04-23T05:52:22;12.07;;;5.70;;
15748;SDS011;7976;52.526;13.326;2023-04-23T05:54:49;10.70;;;4.93;;
15748;SDS011;7976;52.526;13.326;2023-04-23T05:57:16;12.50;;;5.38;;
15748;SDS011;7976;52.526;13.326;2023-04-23T05:59:44;13.30;;;5.95;;
15748;SDS011;7976;52.526;13.326;2023-04-23T06:02:11;19.75;;;5.55;;
15748;SDS011;7976;52.526;13.326;2023-04-23T06:04:38;11.40;;;5.35;;
15748;SDS011;7976;52.526;13.326;2023-04-23T06:07:05;12.10;;;5.38;;
15748;SDS011;7976;52.526;13.326;2023-04-23T06:09:32;12.07;;;5.18;;
15748;SDS011;7976;52.526;13.326;2023-04-23T06:11:59;10.63;;;5.13;;
15748;SDS011;7976;52.526;13.326;2023-04-23T06:14:27;12.73;;;5.22;;
15748;SDS011;7976;52.526;13.326;2023-04-23T06:16:55;11.45;;;5.53;;
15748;SDS011;7976;52.526;13.326;2023-04-23T06:19:22;13.07;;;5.40;;
15748;SDS011;7976;52.526;13.326;2023-04-23T06:21:50;13.70;;;5.75;;
15748;SDS011;7976;52.526;13.326;2023-04-23T06:24:17;12.73;;;5.65;;
15748;SDS011;7976;52.526;13.326;2023-04-23T06:26:44;12.50;;;5.65;;
15748;SDS011;7976;52.526;13.326;2023-04-23T06:29:17;11.18;;;5.10;;
15748;SDS011;7976;52.526;13.326;2023-04-23T06:32:03;12.30;;;5.47;;
15748;SDS011;7976;52.526;13.326;2023-04-23T06:34:30;11.60;;;5.50;;
15748;SDS011;7976;52.526;13.326;2023-04-23T06:36:56;11.95;;;5.50;;
15748;SDS011;7976;52.526;13.326;2023-04-23T06:39:24;12.50;;;5.07;;
15748;SDS011;7976;52.526;13.326;2023-04-23T06:41:50;12.82;;;5.22;;
15748;SDS011;7976;52.526;13.326;2023-04-23T06:44:21;10.75;;;5.20;;
15748;SDS011;7976;52.526;13.326;2023-04-23T06:46:51;12.10;;;4.78;;
15748;SDS011;7976;52.526;13.326;2023-04-23T06:49:19;11.15;;;5.18;;
15748;SDS011;7976;52.526;13.326;2023-04-23T06:51:46;11.00;;;4.70;;
15748;SDS011;7976;52.526;13.326;2023-04-23T06:54:13;12.55;;;5.25;;
15748;SDS011;7976;52.526;13.326;2023-04-23T06:56:39;10.50;;;4.53;;
15748;SDS011;7976;52.526;13.326;2023-04-23T06:59:06;10.50;;;5.03;;
15748;SDS011;7976;52.526;13.326;2023-04-23T07:01:40;10.43;;;4.40;;
15748;SDS011;7976;52.526;13.326;2023-04-23T07:04:08;10.60;;;4.38;;
15748;SDS011;7976;52.526;13.326;2023-04-23T07:06:36;10.70;;;4.60;;
15748;SDS011;7976;52.526;13.326;2023-04-23T07:09:03;11.95;;;5.63;;
15748;SDS011;7976;52.526;13.326;2023-04-23T07:11:30;11.07;;;5.25;;
15748;SDS011;7976;52.526;13.326;2023-04-23T07:13:58;11.02;;;5.25;;
15748;SDS011;7976;52.526;13.326;2023-04-23T07:16:25;11.05;;;5.00;;
15748;SDS011;7976;52.526;13.326;2023-04-23T07:18:56;10.20;;;4.68;;
15748;SDS011;7976;52.526;13.326;2023-04-23T07:21:22;11.90;;;4.80;;
15748;SDS011;7976;52.526;13.326;2023-04-23T07:23:52;11.80;;;4.78;;
15748;SDS011;7976;52.526;13.326;2023-04-23T07:26:21;11.15;;;5.15;;
15748;SDS011;7976;52.526;13.326;2023-04-23T07:28:49;10.80;;;4.53;;
15748;SDS011;7976;52.526;13.326;2023-04-23T07:31:16;11.70;;;5.05;;
15748;SDS011;7976;52.526;13.326;2023-04-23T07:33:43;9.52;;;4.75;;
15748;SDS011;7976;52.526;13.326;2023-04-23T07:36:10;10.25;;;5.07;;
15748;SDS011;7976;52.526;13.326;2023-04-23T07:38:37;13.25;;;5.50;;
15748;SDS011;7976;52.526;13.326;2023-04-23T07:41:05;11.38;;;5.38;;
15748;SDS011;7976;52.526;13.326;2023-04-23T07:43:32;12.10;;;5.60;;
15748;SDS011;7976;52.526;13.326;2023-04-23T07:45:59;11.13;;;5.60;;
15748;SDS011;7976;52.526;13.326;2023-04-23T07:48:25;12.18;;;5.55;;
15748;SDS011;7976;52.526;13.326;2023-04-23T07:50:52;12.02;;;4.70;;
15748;SDS011;7976;52.526;13.326;2023-04-23T07:53:19;11.05;;;5.10;;
15748;SDS011;7976;52.526;13.326;2023-04-23T07:55:46;13.40;;;6.00;;
15748;SDS011;7976;52.526;13.326;2023-04-23T07:58:14;13.10;;;5.47;;
15748;SDS011;7976;52.526;13.326;2023-04-23T08:00:41;11.27;;;5.38;;
15748;SDS011;7976;52.526;13.326;2023-04-23T08:03:08;11.13;;;5.30;;
15748;SDS011;7976;52.526;13.326;2023-04-23T08:05:35;13.40;;;5.80;;
15748;SDS011;7976;52.526;13.326;2023-04-23T08:08:03;11.52;;;5.63;;
15748;SDS011;7976;52.526;13.326;2023-04-23T08:10:30;11.82;;;5.88;;
15748;SDS011;7976;52.526;13.326;2023-04-23T08:12:57;13.98;;;6.22;;
15748;SDS011;7976;52.526;13.326;2023-04-23T08:15:25;11.48;;;5.55;;
15748;SDS011;7976;52.526;13.326;2023-04-23T08:17:51;13.23;;;5.97;;
15748;SDS011;7976;52.526;13.326;2023-04-23T08:20:19;11.07;;;5.90;;
15748;SDS011;7976;52.526;13.326;2023-04-23T08:22:46;12.95;;;5.70;;
15748;SDS011;7976;52.526;13.326;2023-04-23T08:25:14;13.90;;;6.35;;
15748;SDS011;7976;52.526;13.326;2023-04-23T08:27:41;12.45;;;6.00;;
15748;SDS011;7976;52.526;13.326;2023-04-23T08:30:08;11.80;;;5.72;;
15748;SDS011;7976;52.526;13.326;2023-04-23T08:32:37;15.43;;;5.63;;
15748;SDS011;7976;52.526;13.326;2023-04-23T08:35:05;12.20;;;5.68;;
15748;SDS011;7976;52.526;13.326;2023-04-23T08:37:33;12.63;;;6.00;;
15748;SDS011;7976;52.526;13.326;2023-04-23T08:40:00;11.57;;;4.90;;
15748;SDS011;7976;52.526;13.326;2023-04-23T08:42:29;12.65;;;6.10;;
15748;SDS011;7976;52.526;13.326;2023-04-23T08:45:03;12.55;;;5.80;;
15748;SDS011;7976;52.526;13.326;2023-04-23T08:47:32;12.30;;;5.50;;
15748;SDS011;7976;52.526;13.326;2023-04-23T08:50:01;14.43;;;6.03;;
15748;SDS011;7976;52.526;13.326;2023-04-23T08:52:32;10.88;;;5.35;;
15748;SDS011;7976;52.526;13.326;2023-04-23T08:55:01;12.07;;;6.40;;
15748;SDS011;7976;52.526;13.326;2023-04-23T08:57:34;11.80;;;5.95;;
15748;SDS011;7976;52.526;13.326;2023-04-23T09:00:05;11.38;;;5.43;;
15748;SDS011;7976;52.526;13.326;2023-04-23T09:02:35;13.90;;;7.32;;
15748;SDS011;7976;52.526;13.326;2023-04-23T09:05:04;14.43;;;6.63;;
15748;SDS011;7976;52.526;13.326;2023-04-23T09:07:32;13.73;;;6.40;;
15748;SDS011;7976;52.526;13.326;2023-04-23T09:10:00;12.50;;;6.20;;
15748;SDS011;7976;52.526;13.326;2023-04-23T09:12:27;20.23;;;10.95;;
15748;SDS011;7976;52.526;13.326;2023-04-23T09:14:55;13.32;;;6.53;;
15748;SDS011;7976;52.526;13.326;2023-04-23T09:17:22;13.50;;;6.60;;
15748;SDS011;7976;52.526;13.326;2023-04-23T09:19:55;13.75;;;6.47;;
15748;SDS011;7976;52.526;13.326;2023-04-23T09:22:40;11.73;;;5.85;;
15748;SDS011;7976;52.526;13.326;2023-04-23T09:25:10;12.18;;;5.90;;
15748;SDS011;7976;52.526;13.326;2023-04-23T09:27:39;12.23;;;5.63;;
15748;SDS011;7976;52.526;13.326;2023-04-23T09:30:07;11.30;;;5.45;;
15748;SDS011;7976;52.526;13.326;2023-04-23T09:32:36;11.20;;;5.00;;
15748;SDS011;7976;52.526;13.326;2023-04-23T09:35:06;9.68;;;4.07;;
15748;SDS011;7976;52.526;13.326;2023-04-23T09:37:35;10.20;;;4.07;;
15748;SDS011;7976;52.526;13.326;2023-04-23T09:40:08;9.68;;;3.92;;
15748;SDS011;7976;52.526;13.326;2023-04-23T09:42:39;10.80;;;4.20;;
15748;SDS011;7976;52.526;13.326;2023-04-23T09:45:06;8.30;;;3.25;;
15748;SDS011;7976;52.526;13.326;2023-04-23T09:47:38;8.57;;;3.40;;
15748;SDS011;7976;52.526;13.326;2023-04-23T09:50:07;8.52;;;3.30;;
15748;SDS011;7976;52.526;13.326;2023-04-23T09:52:37;9.15;;;4.03;;
15748;SDS011;7976;52.526;13.326;2023-04-23T09:55:07;7.90;;;3.25;;
15748;SDS011;7976;52.526;13.326;2023-04-23T09:57:34;10.27;;;3.45;;
15748;SDS011;7976;52.526;13.326;2023-04-23T10:00:11;8.57;;;3.20;;
15748;SDS011;7976;52.526;13.326;2023-04-23T10:02:44;8.27;;;3.33;;
15748;SDS011;7976;52.526;13.326;2023-04-23T10:05:13;9.02;;;3.67;;
15748;SDS011;7976;52.526;13.326;2023-04-23T10:07:41;10.32;;;3.90;;
15748;SDS011;7976;52.526;13.326;2023-04-23T10:10:11;9.15;;;3.45;;
15748;SDS011;7976;52.526;13.326;2023-04-23T10:12:38;9.38;;;3.88;;
15748;SDS011;7976;52.526;13.326;2023-04-23T10:15:07;8.50;;;3.50;;
15748;SDS011;7976;52.526;13.326;2023-04-23T10:17:36;10.85;;;3.45;;
15748;SDS011;7976;52.526;13.326;2023-04-23T10:20:05;10.55;;;4.28;;
15748;SDS011;7976;52.526;13.326;2023-04-23T10:22:34;9.82;;;4.07;;
15748;SDS011;7976;52.526;13.326;2023-04-23T10:25:04;10.52;;;4.82;;
15748;SDS011;7976;52.526;13.326;2023-04-23T10:27:38;11.18;;;5.18;;
15748;SDS011;7976;52.526;13.326;2023-04-23T10:30:10;12.77;;;5.20;;
15748;SDS011;7976;52.526;13.326;2023-04-23T10:32:38;15.48;;;6.88;;
15748;SDS011;7976;52.526;13.326;2023-04-23T10:35:06;14.38;;;6.82;;
15748;SDS011;7976;52.526;13.326;2023-04-23T10:37:35;14.45;;;6.32;;
15748;SDS011;7976;52.526;13.326;2023-04-23T10:40:05;14.35;;;6.72;;
15748;SDS011;7976;52.526;13.326;2023-04-23T10:42:38;14.48;;;6.45;;
15748;SDS011;7976;52.526;13.326;2023-04-23T10:45:13;15.00;;;6.70;;
15748;SDS011;7976;52.526;13.326;2023-04-23T10:47:42;14.20;;;6.82;;
15748;SDS011;7976;52.526;13.326;2023-04-23T10:50:22;14.73;;;7.38;;
15748;SDS011;7976;52.526;13.326;2023-04-23T10:52:51;13.70;;;6.38;;
15748;SDS011;7976;52.526;13.326;2023-04-23T10:55:21;13.70;;;6.72;;
15748;SDS011;7976;52.526;13.326;2023-04-23T10:57:55;13.55;;;5.63;;
15748;SDS011;7976;52.526;13.326;2023-04-23T11:00:23;13.85;;;6.15;;
15748;SDS011;7976;52.526;13.326;2023-04-23T11:02:51;12.85;;;5.93;;
15748;SDS011;7976;52.526;13.326;2023-04-23T11:05:20;13.73;;;6.68;;
15748;SDS011;7976;52.526;13.326;2023-04-23T11:10:33;13.57;;;6.22;;
15748;SDS011;7976;52.526;13.326;2023-04-23T11:13:24;15.52;;;7.20;;
15748;SDS011;7976;52.526;13.326;2023-04-23T11:18:56;14.25;;;6.97;;
15748;SDS011;7976;52.526;13.326;2023-04-23T11:24:29;15.88;;;7.13;;
15748;SDS011;7976;52.526;13.326;2023-04-23T11:26:58;16.08;;;7.10;;
15748;SDS011;7976;52.526;13.326;2023-04-23T11:29:28;14.45;;;7.18;;
15748;SDS011;7976;52.526;13.326;2023-04-23T11:31:55;13.68;;;6.88;;
15748;SDS011;7976;52.526;13.326;2023-04-23T11:34:22;14.65;;;7.18;;
15748;SDS011;7976;52.526;13.326;2023-04-23T11:36:51;11.82;;;5.78;;
15748;SDS011;7976;52.526;13.326;2023-04-23T11:39:20;13.35;;;6.30;;
15748;SDS011;7976;52.526;13.326;2023-04-23T11:41:48;15.02;;;6.72;;
15748;SDS011;7976;52.526;13.326;2023-04-23T11:44:16;14.10;;;6.57;;
15748;SDS011;7976;52.526;13.326;2023-04-23T11:46:46;14.77;;;6.38;;
15748;SDS011;7976;52.526;13.326;2023-04-23T11:49:14;13.15;;;6.88;;
15748;SDS011;7976;52.526;13.326;2023-04-23T11:51:42;12.68;;;6.05;;
15748;SDS011;7976;52.526;13.326;2023-04-23T11:54:10;13.85;;;6.82;;
15748;SDS011;7976;52.526;13.326;2023-04-23T11:56:38;13.95;;;6.22;;
15748;SDS011;7976;52.526;13.326;2023-04-23T11:59:06;13.75;;;5.72;;
15748;SDS011;7976;52.526;13.326;2023-04-23T12:01:40;12.77;;;5.20;;
15748;SDS011;7976;52.526;13.326;2023-04-23T12:04:11;15.40;;;6.43;;
15748;SDS011;7976;52.526;13.326;2023-04-23T12:06:40;11.88;;;5.60;;
15748;SDS011;7976;52.526;13.326;2023-04-23T12:09:10;11.32;;;5.03;;
15748;SDS011;7976;52.526;13.326;2023-04-23T12:11:38;14.05;;;5.88;;
15748;SDS011;7976;52.526;13.326;2023-04-23T12:14:06;12.13;;;5.15;;
15748;SDS011;7976;52.526;13.326;2023-04-23T12:16:35;13.40;;;5.55;;
15748;SDS011;7976;52.526;13.326;2023-04-23T12:19:08;10.45;;;4.50;;
15748;SDS011;7976;52.526;13.326;2023-04-23T12:21:48;12.80;;;5.03;;
15748;SDS011;7976;52.526;13.326;2023-04-23T12:24:19;11.57;;;4.60;;
15748;SDS011;7976;52.526;13.326;2023-04-23T12:26:51;10.55;;;4.72;;
15748;SDS011;7976;52.526;13.326;2023-04-23T12:29:20;10.93;;;4.07;;
15748;SDS011;7976;52.526;13.326;2023-04-23T12:31:48;12.23;;;4.82;;
15748;SDS011;7976;52.526;13.326;2023-04-23T12:34:20;10.15;;;4.15;;
15748;SDS011;7976;52.526;13.326;2023-04-23T12:36:49;10.13;;;3.75;;
15748;SDS011;7976;52.526;13.326;2023-04-23T12:39:22;8.88;;;3.60;;
15748;SDS011;7976;52.526;13.326;2023-04-23T12:41:53;9.68;;;3.70;;
15748;SDS011;7976;52.526;13.326;2023-04-23T12:44:24;8.60;;;3.47;;
15748;SDS011;7976;52.526;13.326;2023-04-23T12:46:55;8.68;;;3.38;;
15748;SDS011;7976;52.526;13.326;2023-04-23T12:49:25;8.30;;;3.00;;
15748;SDS011;7976;52.526;13.326;2023-04-23T12:51:52;7.88;;;3.10;;
15748;SDS011;7976;52.526;13.326;2023-04-23T12:54:22;8.23;;;3.22;;
15748;SDS011;7976;52.526;13.326;2023-04-23T12:56:50;8.70;;;3.20;;
15748;SDS011;7976;52.526;13.326;2023-04-23T12:59:17;7.07;;;2.58;;
15748;SDS011;7976;52.526;13.326;2023-04-23T13:01:44;6.97;;;2.70;;
15748;SDS011;7976;52.526;13.326;2023-04-23T13:04:11;9.38;;;3.88;;
15748;SDS011;7976;52.526;13.326;2023-04-23T13:06:39;7.93;;;2.60;;
15748;SDS011;7976;52.526;13.326;2023-04-23T13:09:07;6.20;;;2.33;;
15748;SDS011;7976;52.526;13.326;2023-04-23T13:11:35;7.47;;;2.22;;
15748;SDS011;7976;52.526;13.326;2023-04-23T13:14:03;6.10;;;2.50;;
15748;SDS011;7976;52.526;13.326;2023-04-23T13:16:30;7.57;;;2.88;;
15748;SDS011;7976;52.526;13.326;2023-04-23T13:18:58;7.82;;;2.55;;
15748;SDS011;7976;52.526;13.326;2023-04-23T13:21:25;8.68;;;2.90;;
15748;SDS011;7976;52.526;13.326;2023-04-23T13:23:55;7.32;;;2.58;;
15748;SDS011;7976;52.526;13.326;2023-04-23T13:26:22;6.85;;;2.33;;
15748;SDS011;7976;52.526;13.326;2023-04-23T13:28:49;8.48;;;3.22;;
15748;SDS011;7976;52.526;13.326;2023-04-23T13:31:16;10.75;;;3.50;;
15748;SDS011;7976;52.526;13.326;2023-04-23T13:33:42;9.43;;;3.53;;
15748;SDS011;7976;52.526;13.326;2023-04-23T13:36:09;9.95;;;3.95;;
15748;SDS011;7976;52.526;13.326;2023-04-23T13:38:36;8.30;;;2.92;;
15748;SDS011;7976;52.526;13.326;2023-04-23T13:41:04;8.25;;;3.05;;
15748;SDS011;7976;52.526;13.326;2023-04-23T13:43:31;8.25;;;3.10;;
15748;SDS011;7976;52.526;13.326;2023-04-23T13:45:58;6.95;;;2.50;;
15748;SDS011;7976;52.526;13.326;2023-04-23T13:48:25;6.82;;;2.40;;
15748;SDS011;7976;52.526;13.326;2023-04-23T13:50:55;6.25;;;2.30;;
15748;SDS011;7976;52.526;13.326;2023-04-23T13:53:23;8.85;;;3.00;;
15748;SDS011;7976;52.526;13.326;2023-04-23T13:55:50;6.88;;;2.65;;
15748;SDS011;7976;52.526;13.326;2023-04-23T13:58:20;7.78;;;2.58;;
15748;SDS011;7976;52.526;13.326;2023-04-23T14:00:47;7.07;;;2.38;;
15748;SDS011;7976;52.526;13.326;2023-04-23T14:03:15;6.55;;;2.20;;
15748;SDS011;7976;52.526;13.326;2023-04-23T14:05:41;7.82;;;2.55;;
15748;SDS011;7976;52.526;13.326;2023-04-23T14:08:08;6.65;;;2.33;;
15748;SDS011;7976;52.526;13.326;2023-04-23T14:10:37;7.15;;;2.63;;
15748;SDS011;7976;52.526;13.326;2023-04-23T14:13:04;10.20;;;3.45;;
15748;SDS011;7976;52.526;13.326;2023-04-23T14:15:33;6.90;;;2.38;;
15748;SDS011;7976;52.526;13.326;2023-04-23T14:18:00;7.78;;;2.65;;
15748;SDS011;7976;52.526;13.326;2023-04-23T14:20:27;6.82;;;2.63;;
15748;SDS011;7976;52.526;13.326;2023-04-23T14:22:55;7.45;;;2.35;;
15748;SDS011;7976;52.526;13.326;2023-04-23T14:25:29;8.40;;;3.90;;
15748;SDS011;7976;52.526;13.326;2023-04-23T14:28:01;7.93;;;3.10;;
15748;SDS011;7976;52.526;13.326;2023-04-23T14:30:50;6.43;;;2.13;;
15748;SDS011;7976;52.526;13.326;2023-04-23T14:33:21;6.63;;;2.22;;
15748;SDS011;7976;52.526;13.326;2023-04-23T14:35:48;10.77;;;2.70;;
15748;SDS011;7976;52.526;13.326;2023-04-23T14:38:15;6.72;;;2.00;;
15748;SDS011;7976;52.526;13.326;2023-04-23T14:40:43;6.43;;;2.22;;
15748;SDS011;7976;52.526;13.326;2023-04-23T14:43:10;11.43;;;5.03;;
15748;SDS011;7976;52.526;13.326;2023-04-23T14:45:37;8.75;;;3.33;;
15748;SDS011;7976;52.526;13.326;2023-04-23T14:48:06;6.65;;;2.33;;
15748;SDS011;7976;52.526;13.326;2023-04-23T14:50:33;6.15;;;2.05;;
15748;SDS011;7976;52.526;13.326;2023-04-23T14:53:00;7.38;;;2.60;;